• Join FlightAware (Why Join?)
  • Login
  • US Flag 
04:16AM EDT


 

Airport Tracker/Info


-or-


 

Live Flight TrackerFlight Track Log ✈ SWA494 ✈ 12-Apr-2013 ✈ KMDW - KHOU

Flight Track Log - Related Links

Times and Time Zones

All times are in EDT time to prevent confusion due to time zone crossing. See the SWA494 flight status page for this flight to view local times or setup timezone preferences in your user account.

Time Position Orientation Groundspeed Altitude Reporting Facility
EDT Latitude Longitude Course Direction KTS MPH feet Rate Location/Type
06:17PM 41.8000 -87.8000 202° Southwest 161 185 2,600  Level Chicago TRACON
06:19PM 41.7064 -87.8508 202° Southwest 200 230 6,100 2,160 Climbing Chicago Center
06:20PM 41.6392 -87.8903 204° Southwest 254 292 9,000 2,880 Climbing Chicago Center
06:21PM 41.5700 -87.9322 204° Southwest 273 314 12,100 2,580 Climbing Chicago Center
06:22PM 41.4864 -87.9825 204° Southwest 331 381 14,400 2,640 Climbing Chicago Center
06:23PM 41.3900 -88.0400 204° Southwest 352 405 17,700 3,000 Climbing Chicago Center
06:24PM 41.2883 -88.0706 193° South 366 421 20,600 2,700 Climbing Chicago Center
06:25PM 41.1594 -88.1106 193° South 391 450 23,300 2,460 Climbing Chicago Center
06:26PM 41.0483 -88.1422 192° South 406 467 25,800 2,040 Climbing Chicago Center
06:27PM 40.9358 -88.1753 193° South 413 475 27,600 1,500 Climbing Chicago Center
06:28PM 40.8175 -88.2069 191° South 429 494 29,000 1,500 Climbing Chicago Center
06:29PM 40.6969 -88.2422 193° South 443 510 30,800 2,220 Climbing Chicago Center
06:30PM 40.5567 -88.2892 194° South 433 498 33,700 2,340 Climbing Chicago Center
06:31PM 40.4444 -88.3186 191° South 416 479 35,700 1,200 Climbing Chicago Center
06:32PM 40.3333 -88.3450 190° South 410 472 36,300 720 Climbing Chicago Center
06:33PM 40.2294 -88.4131 207° Southwest 417 480 37,200 780 Climbing Chicago Center
06:34PM 40.1247 -88.4892 209° Southwest 403 464 38,000 420 Climbing Chicago Center
06:35PM 40.0464 -88.5489 210° Southwest 405 466 38,000  Level Kansas City Center
06:36PM 39.9489 -88.6203 209° Southwest 403 464 38,000  Level Kansas City Center
06:37PM 39.8519 -88.6900 209° Southwest 398 458 38,000  Level Kansas City Center
06:38PM 39.7550 -88.7619 210° Southwest 399 459 38,000  Level Kansas City Center
06:39PM 39.6564 -88.8333 209° Southwest 403 464 38,000  Level Kansas City Center
06:41PM 39.5383 -88.9189 209° Southwest 404 465 38,000  Level Kansas City Center
06:42PM 39.4403 -88.9914 210° Southwest 404 465 38,000  Level Kansas City Center
06:43PM 39.3517 -89.0550 209° Southwest 406 467 38,000  Level Kansas City Center
06:44PM 39.2344 -89.1381 209° Southwest 401 461 38,000  Level Kansas City Center
06:45PM 39.1308 -89.2128 209° Southwest 396 456 38,000  Level Kansas City Center
06:46PM 39.0350 -89.2817 209° Southwest 394 453 38,000  Level Kansas City Center
06:47PM 38.9392 -89.3514 210° Southwest 395 455 38,000  Level Kansas City Center
06:48PM 38.8353 -89.4253 209° Southwest 396 456 38,000  Level Kansas City Center
06:49PM 38.7375 -89.4942 209° Southwest 399 459 38,000  Level Kansas City Center
06:50PM 38.6336 -89.5672 209° Southwest 397 457 38,000  Level Kansas City Center
06:51PM 38.5381 -89.6344 209° Southwest 392 451 38,000  Level Kansas City Center
06:52PM 38.4444 -89.6992 208° Southwest 391 450 38,000  Level Kansas City Center
06:53PM 38.3378 -89.7753 209° Southwest 393 452 38,000  Level Kansas City Center
06:54PM 38.2425 -89.8408 208° Southwest 389 448 38,000  Level Kansas City Center
06:55PM 38.1475 -89.9072 209° Southwest 389 448 38,000  Level Kansas City Center
06:56PM 38.0461 -89.9775 209° Southwest 386 444 38,000  Level Kansas City Center
06:57PM 37.9508 -90.0425 208° Southwest 388 447 38,000  Level Kansas City Center
06:58PM 37.8517 -90.1111 209° Southwest 393 452 38,000  Level Kansas City Center
06:59PM 37.7564 -90.1781 209° Southwest 392 451 38,000  Level Kansas City Center
07:00PM 37.6594 -90.2442 208° Southwest 394 453 38,000  Level Kansas City Center
07:01PM 37.5558 -90.2917 200° South 398 458 38,000  Level Kansas City Center
07:02PM 37.4517 -90.3394 200° South 398 458 38,000  Level Kansas City Center
07:03PM 37.3467 -90.3886 200° South 401 461 38,000  Level Kansas City Center
07:04PM 37.2819 -90.4219 202° Southwest 398 458 38,000  Level Memphis Center
07:05PM 37.1778 -90.4689 200° South 398 458 38,000  Level Memphis Center
07:06PM 37.0756 -90.5206 202° Southwest 403 464 38,000  Level Memphis Center
07:07PM 36.9733 -90.5725 202° Southwest 403 464 38,000  Level Memphis Center
07:08PM 36.8711 -90.6267 203° Southwest 403 464 38,000  Level Memphis Center
07:09PM 36.7711 -90.6808 203° Southwest 397 457 38,000  Level Memphis Center
07:10PM 36.6708 -90.7347 203° Southwest 397 457 38,000  Level Memphis Center
07:11PM 36.5728 -90.7883 204° Southwest 397 457 38,000  Level Memphis Center
07:12PM 36.4744 -90.8394 203° Southwest 391 450 38,000  Level Memphis Center
07:13PM 36.3764 -90.8906 203° Southwest 391 450 38,000  Level Memphis Center
07:14PM 36.2781 -90.9439 204° Southwest 391 450 38,000  Level Memphis Center
07:15PM 36.1819 -90.9947 203° Southwest 391 450 38,000  Level Memphis Center
07:16PM 36.0839 -91.0478 204° Southwest 391 450 38,000  Level Memphis Center
07:17PM 35.9856 -91.0983 203° Southwest 386 444 38,000  Level Memphis Center
07:18PM 35.8872 -91.1486 203° Southwest 386 444 38,000  Level Memphis Center
07:19PM 35.7908 -91.1989 203° Southwest 386 444 38,000  Level Memphis Center
07:20PM 35.6947 -91.2517 204° Southwest 380 437 38,000  Level Memphis Center
07:21PM 35.6025 -91.3017 204° Southwest 370 426 38,000  Level Memphis Center
07:22PM 35.5061 -91.3517 203° Southwest 376 433 38,000  Level Memphis Center
07:23PM 35.4097 -91.4017 203° Southwest 382 440 38,000  Level Memphis Center
07:24PM 35.3464 -91.4922 229° Southwest 356 410 38,000  Level Memphis Center
07:25PM 35.2933 -91.6011 239° Southwest 363 418 38,000  Level Memphis Center
07:26PM 35.2275 -91.6942 229° Southwest 368 423 38,000  Level Memphis Center
07:27PM 35.1250 -91.7331 197° South 364 419 38,000  Level Memphis Center
07:28PM 35.0203 -91.7744 198° South 377 434 38,000  Level Memphis Center
07:29PM 34.9197 -91.8133 198° South 387 445 38,000  Level Memphis Center
07:30PM 34.8189 -91.8547 199° South 387 445 38,000  Level Memphis Center
07:31PM 34.7206 -91.8958 199° South 387 445 38,000  Level Memphis Center
07:32PM 34.6178 -91.9344 197° South 387 445 38,000  Level Memphis Center
07:33PM 34.5169 -91.9728 197° South 387 445 38,000  Level Memphis Center
07:34PM 34.4125 -92.0011 193° South 387 445 38,000  Level Memphis Center
07:35PM 34.3097 -92.0294 193° South 382 440 38,000  Level Memphis Center
07:36PM 34.2028 -92.0625 194° South 382 440 38,000  Level Memphis Center
07:37PM 34.0981 -92.0881 191° South 382 440 38,000 780 Level Memphis Center
07:38PM 33.9956 -92.1233 196° South 387 445 39,600 780 Climbing Memphis Center
07:39PM 33.8528 -92.1617 193° South 374 430 40,000 120 Climbing Fort Worth Center
07:40PM 33.7497 -92.1903 193° South 379 436 40,000  Level Fort Worth Center
07:41PM 33.6422 -92.2192 193° South 390 449 40,000  Level Fort Worth Center
07:42PM 33.5328 -92.2481 192° South 396 456 40,000  Level Fort Worth Center
07:43PM 33.4278 -92.2789 194° South 396 456 40,000  Level Fort Worth Center
07:44PM 33.3225 -92.3100 194° South 391 450 40,000  Level Fort Worth Center
07:45PM 33.2131 -92.3386 192° South 391 450 40,000  Level Fort Worth Center
07:46PM 33.1058 -92.3694 194° South 391 450 40,000  Level Fort Worth Center
07:47PM 32.9983 -92.3981 193° South 396 456 40,000  Level Fort Worth Center
07:48PM 32.9033 -92.4231 192° South 396 456 40,000  Level Fort Worth Center
07:49PM 32.7919 -92.4539 193° South 396 456 40,000  Level Fort Worth Center
07:51PM 32.5981 -92.5061 193° South 406 467 40,000  Level Houston Center
07:52PM 32.4889 -92.5372 194° South 408 470 40,000  Level Houston Center
07:53PM 32.3797 -92.5678 193° South 406 467 40,000  Level Houston Center
07:54PM 32.2486 -92.6033 193° South 405 466 40,000  Level Houston Center
07:55PM 32.1406 -92.6328 193° South 401 461 40,000  Level Houston Center
07:56PM 32.0331 -92.6625 193° South 400 460 40,000  Level Houston Center
07:57PM 31.9361 -92.7167 205° Southwest 394 453 40,000  Level Houston Center
07:58PM 31.8653 -92.8097 228° Southwest 385 443 40,000  Level Houston Center
07:59PM 31.7958 -92.9028 229° Southwest 381 438 40,000  Level Houston Center
08:00PM 31.7119 -93.0103 227° Southwest 375 432 40,000  Level Houston Center
08:01PM 31.6447 -93.0956 227° Southwest 361 415 40,000  Level Houston Center
08:02PM 31.5772 -93.1806 227° Southwest 359 413 40,000  Level Houston Center
08:03PM 31.5092 -93.2664 227° Southwest 361 415 40,000  Level Houston Center
08:04PM 31.4383 -93.3558 227° Southwest 364 419 40,000  Level Houston Center
08:05PM 31.3706 -93.4406 227° Southwest 359 413 40,000  Level Houston Center
08:06PM 31.3014 -93.5272 227° Southwest 364 419 40,000 -540 Level Houston Center
08:07PM 31.2206 -93.6256 226° Southwest 362 417 39,000 -960 Descending Houston Center
08:08PM 31.1528 -93.7133 228° Southwest 365 420 38,100 -1,500 Descending Houston Center
08:09PM 31.0811 -93.8014 226° Southwest 374 430 36,000 -2,400 Descending Houston Center
08:10PM 31.0011 -93.8997 227° Southwest 374 430 33,200 -1,920 Descending Houston Center
08:11PM 30.9378 -93.9778 227° Southwest 379 436 32,100 -1,440 Descending Houston Center
08:12PM 30.8472 -94.0894 227° Southwest 395 455 30,300 -2,280 Descending Houston Center
08:13PM 30.7697 -94.1836 226° Southwest 403 464 27,500 -2,760 Descending Houston Center
08:14PM 30.6931 -94.2767 226° Southwest 401 461 24,700 -2,520 Descending Houston Center
08:16PM 30.6194 -94.3667 226° Southwest 388 447 22,400 -2,400 Descending Houston Center
08:16PM 30.5664 -94.4325 227° Southwest 374 430 20,700 -2,280 Descending Houston Center
08:17PM 30.5475 -94.4522 222° Southwest 373 429 20,100 -2,160 Descending Houston Center
08:17PM 30.5006 -94.5117 228° Southwest 365 420 18,800 -2,280 Descending Houston Center
08:18PM 30.4697 -94.5544 230° Southwest 359 413 17,800 -1,980 Descending Houston Center
08:18PM 30.4419 -94.5992 234° Southwest 344 396 16,800 -1,980 Descending Houston Center
08:19PM 30.4175 -94.6394 235° Southwest 350 403 15,800 -1,980 Descending Houston Center
08:19PM 30.3836 -94.6917 233° Southwest 340 391 14,800 -1,560 Descending Houston Center
08:20PM 30.3614 -94.7242 232° Southwest 339 390 14,200 -1,500 Descending Houston Center
08:20PM 30.3306 -94.7733 234° Southwest 323 372 13,300 -1,200 Descending Houston Center
08:21PM 30.3081 -94.8078 233° Southwest 327 376 13,000 -300 Descending Houston Center
08:21PM 30.2664 -94.8711 233° Southwest 323 372 13,000  Level Houston Center
08:22PM 30.2553 -94.8894 235° Southwest 322 371 13,000 -720 Level Houston Center
08:22PM 30.2153 -94.9525 234° Southwest 318 366 12,300 -1,200 Descending Houston Center
08:23PM 30.1906 -94.9889 232° Southwest 322 371 11,800 -1,020 Descending Houston Center
08:23PM 30.1583 -95.0394 234° Southwest 324 373 11,300 -900 Descending Houston Center
08:24PM 30.1347 -95.0692 227° Southwest 324 373 10,900 -1,020 Descending Houston Center
08:24PM 30.0814 -95.0947 203° Southwest 327 376 10,300 -900 Descending Houston Center
08:25PM 30.0503 -95.1081 200° South 327 376 10,000 -900 Descending Houston Center
08:25PM 30.0006 -95.1289 200° South 296 341 9,400 -1,260 Descending Houston Center
08:26PM 29.9725 -95.1408 200° South 304 350 8,700 -1,500 Descending Houston Center
08:26PM 29.9300 -95.1594 201° Southwest 295 339 8,000 -720 Descending Houston Center
08:27PM 29.8981 -95.1736 201° Southwest 290 334 8,000  Level Houston Center
08:27PM 29.8611 -95.1869 197° South 231 266 8,000 -540 Level Houston Center
08:28PM 29.8367 -95.2000 205° Southwest 242 278 7,500 -1,260 Descending Houston Center
08:28PM 29.7908 -95.2197 200° South 238 274 6,600 -1,380 Descending Houston Center
08:29PM 29.7608 -95.2311 198° South 241 277 6,100 -600 Descending Houston Center
08:29PM 29.7269 -95.2347 185° South 234 269 6,000 -120 Descending Houston Center
08:30PM 29.6967 -95.2347 180° South 235 270 6,000  Level Houston Center
08:30PM 29.6619 -95.2353 181° South 233 268 6,000  Level Houston Center
08:31PM 29.6328 -95.2369 183° South 236 272 6,000  Level Houston Center
08:31PM 29.6014 -95.2381 182° South 229 264 6,000  Level Houston Center
08:32PM 29.5719 -95.2392 182° South 226 260 6,000  Level Houston Center
08:32PM 29.5444 -95.2592 212° Southwest 212 244 6,000 -300 Level Houston Center
08:33PM 29.5250 -95.2789 221° Southwest 213 245 5,700 -1,020 Descending Houston Center
08:33PM 29.5006 -95.3078 226° Southwest 218 251 5,000 -780 Descending Houston Center
08:34PM 29.4733 -95.3369 223° Southwest 217 250 4,900 -720 Descending Houston Center
08:34PM 29.4569 -95.3586 229° Southwest 216 249 4,300 -1,260 Descending Houston Center
08:35PM 29.4478 -95.3922 253° West 220 253 3,600 -1,080 Descending Houston Center
08:35PM 29.4642 -95.4131 312° West 198 228 3,200 -900 Descending Houston Center
08:36PM 29.4925 -95.4283 335° Northwest 204 235 2,700 -840 Descending Houston Center
08:36PM 29.5150 -95.4189 20° North 186 214 2,400 -600 Descending Houston Center
08:37PM 29.5353 -95.4011 37° Northeast 180 207 2,100 -420 Descending Houston Center
08:38PM 29.5497 -95.3836 47° Northeast 167 192 2,000 -300 Descending Houston Center
08:38PM 29.5689 -95.3644 41° Northeast 171 197 1,800 -540 Descending Houston Center
08:39PM 29.5839 -95.3458 47° Northeast 165 190 1,500 -720 Descending Houston Center
08:39PM 29.6008 -95.3286 41° Northeast 166 191 1,100 -720 Descending Houston Center
08:40PM 29.6125 -95.3136 48° Northeast 132 152 800 -720 Descending Houston Center
08:40PM 29.6275 -95.2983 42° Northeast 149 171 400 -420 Descending Houston Center
08:41PM 29.6614 -95.2631 42° Northeast 145 167 100 -300 Descending Houston Center